Terminal Aerodrome Forecast
Issued by NWS

Home | Current Version | Previous Version | Text Only | Print | Product List | Glossary On
Versions: 1 2 3 4 5 6 7 8 9 10 11 12 13 14 15 16 17 18 19 20 21 22 23
000
FTUS46 KOTX 221727
TAFMWH
TAF
KMWH 221727Z 2218/2318 21008KT P6SM VCSH SCT100 BKN200
     FM230200 VRB04KT P6SM SCT100 BKN200
     FM231000 34004KT P6SM BKN080 OVC120=

USA.gov is the U.S. government's official web portal to all federal, state and local government web resources and services.